KGGI

Details ICAO KGGI
Name GRINNELL RGNL
Region United States
Timezone America/Chicago (UTC-6.0)
Plans Departing 0
Arriving 3
Stats Elevation 1,008 ft / 307 m (AMSL)
Location 41.709946° -92.735765°
Runways 1
Magnetic Variation 0.108° E
Sunrise 2017-12-17 13:33:55 UTC / 2017-12-17 07:33:55 Local
Sunset 2017-12-17 22:43:11 UTC / 2017-12-17 16:43:11 Local
Advertisement - Login to hide

Runways

ID Width Length Bearing (true) Bearing (mag) Surface Threshold Offset Overrun Length
13 75 ft / 23 m 5,194 ft / 1,583 m 134.74° 134.63° Concrete 200 ft / 61 m 0 ft / 0 m
31 75 ft / 23 m 5,194 ft / 1,583 m 314.75° 314.64° Concrete 200 ft / 61 m 0 ft / 0 m

Map

Weather


0- 5 10 15 20 25 30 35+ Temperature / ° C

Clouds and Precipitation
Forecast for 2017-12-18 00:00 UTC. Updated 19 minutes ago

Ground ~20,000 ft ~40,000 ft Winds

METAR

KGGI 172135Z AUTO 00000KT 10SM BKN027 BKN032 OVC039 04/00 A2996 RMK AO2 T00380000

TAF

Not found

Frequencies

Unicom 122.80 MHz CTAF/UNICOM
Approach 127.05 MHz CHICAGO CNTR
Warning: Do not use this data for real-world aviation or navigation. No guarantee of current accuracy is given.